PWSweather.com
Personal Weather Stations
Station Observations
KILMORRI1
Goose Lake, Morris, IL 60450

Goose LakeMorris, IL 60450

Lat: 41.34, Lon: -88.3

Elevation: 523

Station Type:

www.gooselakeweather.com

High Low Average
Temperature 54.5°F12.5°C 25.3°F-3.7°C 42.2°F5.7°C
Dew Point 38.6°F3.7°C 23.8°F-4.6°C 33.1°F0.6°C
Winds 11.5 mph 18.5 kmh Calm Calm 4.0 mph SSW6.4 kmh SSW
Wind Gusts 19.6 mph31.5 kmh -- 7.0 mph11.3 kmh
Humidity 95% 51% 72%
Pressure 30.40 in1029.5 mb 30.05 in1017.6 mb -
Precipitation 0.00 in0.0 mm - -
Hour Temp Dew Point Humidity Winds Wind Gusts Pressure Precip Precip Rate Daily Precip Total
12:00 AM 35.9°F2.2°C 30.9°F-0.6°C 82% Calm Calm -- 30.32 in1026.8 mb - 0.00 in0.0 mm 0.00 in0.0 mm
12:10 AM 35.4°F1.9°C 31.0°F-0.6°C 84% Calm Calm -- 30.32 in1026.8 mb - 0.00 in0.0 mm 0.00 in0.0 mm
12:20 AM 35.2°F1.8°C 31.1°F-0.5°C 85% Calm Calm -- 30.32 in1026.8 mb - 0.00 in0.0 mm 0.00 in0.0 mm
12:30 AM 35.0°F1.7°C 30.9°F-0.6°C 85% Calm Calm -- 30.32 in1026.8 mb - 0.00 in0.0 mm 0.00 in0.0 mm
12:40 AM 34.8°F1.6°C 31.0°F-0.6°C 86% Calm Calm 2.3 mph3.7 kmh 30.32 in1026.8 mb - 0.00 in0.0 mm 0.00 in0.0 mm
12:50 AM 34.5°F1.4°C 30.8°F-0.7°C 86% 1.2 mph NW1.9 kmh NW 2.3 mph3.7 kmh 30.32 in1026.8 mb - 0.00 in0.0 mm 0.00 in0.0 mm
01:00 AM 34.1°F1.2°C 30.4°F-0.9°C 86% Calm Calm -- 30.32 in1026.8 mb - 0.00 in0.0 mm 0.00 in0.0 mm
01:10 AM 33.9°F1.1°C 30.2°F-1.0°C 86% 1.2 mph NW1.9 kmh NW 2.3 mph3.7 kmh 30.32 in1026.8 mb - 0.00 in0.0 mm 0.00 in0.0 mm
01:20 AM 33.2°F0.7°C 29.8°F-1.2°C 87% Calm Calm -- 30.32 in1026.8 mb - 0.00 in0.0 mm 0.00 in0.0 mm
01:30 AM 32.4°F0.2°C 28.7°F-1.8°C 86% Calm Calm -- 30.32 in1026.8 mb - 0.00 in0.0 mm 0.00 in0.0 mm
01:40 AM 31.6°F-0.2°C 28.5°F-1.9°C 88% Calm Calm -- 30.33 in1027.1 mb - 0.00 in0.0 mm 0.00 in0.0 mm
01:50 AM 30.4°F-0.9°C 27.0°F-2.8°C 87% Calm Calm -- 30.33 in1027.1 mb - 0.00 in0.0 mm 0.00 in0.0 mm
02:00 AM 30.1°F-1.1°C 27.0°F-2.8°C 88% 1.2 mph WNW1.9 kmh WNW 2.3 mph3.7 kmh 30.33 in1027.1 mb - 0.00 in0.0 mm 0.00 in0.0 mm
02:10 AM 30.0°F-1.1°C 27.2°F-2.7°C 89% Calm Calm -- 30.34 in1027.4 mb - 0.00 in0.0 mm 0.00 in0.0 mm
02:20 AM 29.6°F-1.3°C 27.1°F-2.7°C 90% 2.3 mph WNW3.7 kmh WNW 3.5 mph5.6 kmh 30.34 in1027.4 mb - 0.00 in0.0 mm 0.00 in0.0 mm
02:30 AM 29.4°F-1.4°C 26.8°F-2.9°C 90% 1.2 mph NW1.9 kmh NW 2.3 mph3.7 kmh 30.34 in1027.4 mb - 0.00 in0.0 mm 0.00 in0.0 mm
02:40 AM 29.2°F-1.6°C 26.6°F-3.0°C 90% 1.2 mph NW1.9 kmh NW 2.3 mph3.7 kmh 30.34 in1027.4 mb - 0.00 in0.0 mm 0.00 in0.0 mm
02:50 AM 29.0°F-1.7°C 26.7°F-2.9°C 91% 1.2 mph NW1.9 kmh NW 2.3 mph3.7 kmh 30.34 in1027.4 mb - 0.00 in0.0 mm 0.00 in0.0 mm
03:00 AM 29.0°F-1.7°C 26.7°F-2.9°C 91% Calm Calm -- 30.34 in1027.4 mb - 0.00 in0.0 mm 0.00 in0.0 mm
03:10 AM 28.7°F-1.8°C 26.4°F-3.1°C 91% Calm Calm -- 30.34 in1027.4 mb - 0.00 in0.0 mm 0.00 in0.0 mm
03:20 AM 28.4°F-2.0°C 26.1°F-3.3°C 91% Calm Calm 1.2 mph1.9 kmh 30.34 in1027.4 mb - 0.00 in0.0 mm 0.00 in0.0 mm
03:30 AM 28.1°F-2.2°C 26.1°F-3.3°C 92% 1.2 mph NW1.9 kmh NW 2.3 mph3.7 kmh 30.34 in1027.4 mb - 0.00 in0.0 mm 0.00 in0.0 mm
03:40 AM 27.8°F-2.3°C 25.8°F-3.4°C 92% Calm Calm -- 30.34 in1027.4 mb - 0.00 in0.0 mm 0.00 in0.0 mm
03:50 AM 27.8°F-2.3°C 25.8°F-3.4°C 92% 1.2 mph NW1.9 kmh NW 2.3 mph3.7 kmh 30.35 in1027.8 mb - 0.00 in0.0 mm 0.00 in0.0 mm
04:00 AM 27.8°F-2.3°C 26.1°F-3.3°C 93% Calm Calm -- 30.35 in1027.8 mb - 0.00 in0.0 mm 0.00 in0.0 mm
04:10 AM 27.5°F-2.5°C 25.7°F-3.5°C 93% Calm Calm -- 30.35 in1027.8 mb - 0.00 in0.0 mm 0.00 in0.0 mm
04:20 AM 27.0°F-2.8°C 25.0°F-3.9°C 92% Calm Calm -- 30.35 in1027.8 mb - 0.00 in0.0 mm 0.00 in0.0 mm
04:30 AM 26.8°F-2.9°C 25.1°F-3.8°C 93% Calm Calm -- 30.35 in1027.8 mb - 0.00 in0.0 mm 0.00 in0.0 mm
04:40 AM 26.9°F-2.8°C 25.1°F-3.8°C 93% Calm Calm -- 30.35 in1027.8 mb - 0.00 in0.0 mm 0.00 in0.0 mm
04:50 AM 26.7°F-2.9°C 25.0°F-3.9°C 93% Calm Calm -- 30.35 in1027.8 mb - 0.00 in0.0 mm 0.00 in0.0 mm
05:00 AM 26.7°F-2.9°C 24.9°F-3.9°C 93% Calm Calm -- 30.35 in1027.8 mb - 0.00 in0.0 mm 0.00 in0.0 mm
05:10 AM 26.7°F-2.9°C 25.0°F-3.9°C 93% Calm Calm -- 30.36 in1028.1 mb - 0.00 in0.0 mm 0.00 in0.0 mm
05:20 AM 26.7°F-2.9°C 25.2°F-3.8°C 94% Calm Calm -- 30.36 in1028.1 mb - 0.00 in0.0 mm 0.00 in0.0 mm
05:30 AM 26.6°F-3.0°C 25.1°F-3.8°C 94% Calm Calm -- 30.36 in1028.1 mb - 0.00 in0.0 mm 0.00 in0.0 mm
05:40 AM 26.5°F-3.1°C 25.0°F-3.9°C 94% 1.2 mph NW1.9 kmh NW 1.2 mph1.9 kmh 30.37 in1028.4 mb - 0.00 in0.0 mm 0.00 in0.0 mm
05:50 AM 26.4°F-3.1°C 24.9°F-3.9°C 94% Calm Calm -- 30.37 in1028.4 mb - 0.00 in0.0 mm 0.00 in0.0 mm
06:00 AM 26.3°F-3.2°C 24.8°F-4.0°C 94% Calm Calm -- 30.37 in1028.4 mb - 0.00 in0.0 mm 0.00 in0.0 mm
06:10 AM 26.2°F-3.2°C 24.7°F-4.1°C 94% Calm Calm -- 30.37 in1028.4 mb - 0.00 in0.0 mm 0.00 in0.0 mm
06:20 AM 26.3°F-3.2°C 24.8°F-4.0°C 94% Calm Calm -- 30.37 in1028.4 mb - 0.00 in0.0 mm 0.00 in0.0 mm
06:30 AM 26.0°F-3.3°C 24.5°F-4.2°C 94% Calm Calm -- 30.37 in1028.4 mb - 0.00 in0.0 mm 0.00 in0.0 mm
06:40 AM 26.0°F-3.3°C 24.5°F-4.2°C 94% Calm Calm -- 30.38 in1028.8 mb - 0.00 in0.0 mm 0.00 in0.0 mm
06:50 AM 25.7°F-3.5°C 24.2°F-4.3°C 94% Calm Calm -- 30.38 in1028.8 mb - 0.00 in0.0 mm 0.00 in0.0 mm
07:00 AM 25.3°F-3.7°C 23.8°F-4.6°C 94% Calm Calm -- 30.39 in1029.1 mb - 0.00 in0.0 mm 0.00 in0.0 mm
07:10 AM 25.4°F-3.7°C 23.9°F-4.5°C 94% Calm Calm -- 30.39 in1029.1 mb - 0.00 in0.0 mm 0.00 in0.0 mm
07:20 AM 25.4°F-3.7°C 23.9°F-4.5°C 94% Calm Calm -- 30.39 in1029.1 mb - 0.00 in0.0 mm 0.00 in0.0 mm
07:30 AM 26.0°F-3.3°C 24.5°F-4.2°C 94% Calm Calm -- 30.39 in1029.1 mb - 0.00 in0.0 mm 0.00 in0.0 mm
07:40 AM 26.8°F-2.9°C 25.6°F-3.6°C 95% Calm Calm -- 30.39 in1029.1 mb - 0.00 in0.0 mm 0.00 in0.0 mm
07:50 AM 27.9°F-2.3°C 26.7°F-2.9°C 95% Calm Calm -- 30.39 in1029.1 mb - 0.00 in0.0 mm 0.00 in0.0 mm
08:00 AM 29.1°F-1.6°C 27.9°F-2.3°C 95% Calm Calm -- 30.39 in1029.1 mb - 0.00 in0.0 mm 0.00 in0.0 mm
08:10 AM 30.7°F-0.7°C 29.4°F-1.4°C 95% Calm Calm -- 30.39 in1029.1 mb - 0.00 in0.0 mm 0.00 in0.0 mm
08:20 AM 33.2°F0.7°C 32.0°F0.0°C 95% Calm Calm 2.3 mph3.7 kmh 30.39 in1029.1 mb - 0.00 in0.0 mm 0.00 in0.0 mm
08:30 AM 35.7°F2.1°C 32.5°F0.3°C 88% 3.5 mph ESE5.6 kmh ESE 4.6 mph7.4 kmh 30.39 in1029.1 mb - 0.00 in0.0 mm 0.00 in0.0 mm
08:40 AM 36.5°F2.5°C 32.7°F0.4°C 86% 4.6 mph SE7.4 kmh SE 4.6 mph7.4 kmh 30.39 in1029.1 mb - 0.00 in0.0 mm 0.00 in0.0 mm
08:50 AM 37.3°F2.9°C 33.2°F0.7°C 85% 4.6 mph E7.4 kmh E 5.8 mph9.3 kmh 30.39 in1029.1 mb - 0.00 in0.0 mm 0.00 in0.0 mm
09:00 AM 38.4°F3.6°C 34.0°F1.1°C 84% 4.6 mph E7.4 kmh E 6.9 mph11.1 kmh 30.39 in1029.1 mb - 0.00 in0.0 mm 0.00 in0.0 mm
09:10 AM 39.1°F3.9°C 34.0°F1.1°C 82% 3.5 mph SE5.6 kmh SE 4.6 mph7.4 kmh 30.39 in1029.1 mb - 0.00 in0.0 mm 0.00 in0.0 mm
09:20 AM 39.5°F4.2°C 34.1°F1.2°C 81% 6.9 mph ESE11.1 kmh ESE 9.2 mph14.8 kmh 30.40 in1029.5 mb - 0.00 in0.0 mm 0.00 in0.0 mm
09:30 AM 40.3°F4.6°C 34.9°F1.6°C 81% 5.8 mph ESE9.3 kmh ESE 9.2 mph14.8 kmh 30.40 in1029.5 mb - 0.00 in0.0 mm 0.00 in0.0 mm
09:40 AM 40.9°F4.9°C 35.2°F1.8°C 80% 4.6 mph ESE7.4 kmh ESE 5.8 mph9.3 kmh 30.40 in1029.5 mb - 0.00 in0.0 mm 0.00 in0.0 mm
09:50 AM 41.5°F5.3°C 34.5°F1.4°C 76% 4.6 mph SE7.4 kmh SE 6.9 mph11.1 kmh 30.40 in1029.5 mb - 0.00 in0.0 mm 0.00 in0.0 mm
10:00 AM 42.3°F5.7°C 35.3°F1.8°C 76% 5.8 mph ESE9.3 kmh ESE 8.1 mph13.0 kmh 30.40 in1029.5 mb - 0.00 in0.0 mm 0.00 in0.0 mm
10:10 AM 42.5°F5.8°C 34.8°F1.6°C 74% 5.8 mph SE9.3 kmh SE 10.4 mph16.7 kmh 30.39 in1029.1 mb - 0.00 in0.0 mm 0.00 in0.0 mm
10:20 AM 42.8°F6.0°C 35.1°F1.7°C 74% 4.6 mph ESE7.4 kmh ESE 6.9 mph11.1 kmh 30.40 in1029.5 mb - 0.00 in0.0 mm 0.00 in0.0 mm
10:30 AM 43.4°F6.3°C 35.0°F1.7°C 72% 6.9 mph SE11.1 kmh SE 9.2 mph14.8 kmh 30.40 in1029.5 mb - 0.00 in0.0 mm 0.00 in0.0 mm
10:40 AM 43.5°F6.4°C 35.4°F1.9°C 73% 6.9 mph E11.1 kmh E 9.2 mph14.8 kmh 30.39 in1029.1 mb - 0.00 in0.0 mm 0.00 in0.0 mm
10:50 AM 44.5°F6.9°C 34.5°F1.4°C 68% 4.6 mph S7.4 kmh S 8.1 mph13.0 kmh 30.39 in1029.1 mb - 0.00 in0.0 mm 0.00 in0.0 mm
11:00 AM 45.4°F7.4°C 34.7°F1.5°C 66% 4.6 mph SE7.4 kmh SE 6.9 mph11.1 kmh 30.39 in1029.1 mb - 0.00 in0.0 mm 0.00 in0.0 mm
11:10 AM 45.3°F7.4°C 35.7°F2.1°C 69% 1.2 mph ESE1.9 kmh ESE 3.5 mph5.6 kmh 30.39 in1029.1 mb - 0.00 in0.0 mm 0.00 in0.0 mm
11:20 AM 45.2°F7.3°C 34.9°F1.6°C 67% 2.3 mph S3.7 kmh S 3.5 mph5.6 kmh 30.39 in1029.1 mb - 0.00 in0.0 mm 0.00 in0.0 mm
11:30 AM 46.4°F8.0°C 35.3°F1.8°C 65% 4.6 mph S7.4 kmh S 12.7 mph20.4 kmh 30.38 in1028.8 mb - 0.00 in0.0 mm 0.00 in0.0 mm
11:40 AM 46.4°F8.0°C 34.8°F1.6°C 64% 3.5 mph SE5.6 kmh SE 8.1 mph13.0 kmh 30.38 in1028.8 mb - 0.00 in0.0 mm 0.00 in0.0 mm
11:50 AM 46.7°F8.2°C 36.0°F2.2°C 66% 4.6 mph S7.4 kmh S 11.5 mph18.5 kmh 30.37 in1028.4 mb - 0.00 in0.0 mm 0.00 in0.0 mm
12:00 PM 46.5°F8.1°C 35.0°F1.7°C 64% 4.6 mph SSE7.4 kmh SSE 5.8 mph9.3 kmh 30.37 in1028.4 mb - 0.00 in0.0 mm 0.00 in0.0 mm
12:10 PM 47.5°F8.6°C 36.3°F2.4°C 65% 5.8 mph SSW9.3 kmh SSW 10.4 mph16.7 kmh 30.37 in1028.4 mb - 0.00 in0.0 mm 0.00 in0.0 mm
12:20 PM 47.5°F8.6°C 35.1°F1.7°C 62% 3.5 mph SW5.6 kmh SW 6.9 mph11.1 kmh 30.36 in1028.1 mb - 0.00 in0.0 mm 0.00 in0.0 mm
12:30 PM 47.9°F8.8°C 35.1°F1.7°C 61% 1.2 mph S1.9 kmh S 3.5 mph5.6 kmh 30.36 in1028.1 mb - 0.00 in0.0 mm 0.00 in0.0 mm
12:40 PM 48.6°F9.2°C 36.1°F2.3°C 62% 8.1 mph S13.0 kmh S 13.8 mph22.2 kmh 30.36 in1028.1 mb - 0.00 in0.0 mm 0.00 in0.0 mm
12:50 PM 48.7°F9.3°C 36.7°F2.6°C 63% 4.6 mph SW7.4 kmh SW 5.8 mph9.3 kmh 30.35 in1027.8 mb - 0.00 in0.0 mm 0.00 in0.0 mm
01:00 PM 49.5°F9.7°C 36.1°F2.3°C 60% 5.8 mph S9.3 kmh S 5.8 mph9.3 kmh 30.35 in1027.8 mb - 0.00 in0.0 mm 0.00 in0.0 mm
01:10 PM 49.7°F9.8°C 35.9°F2.2°C 59% 5.8 mph S9.3 kmh S 5.8 mph9.3 kmh 30.34 in1027.4 mb - 0.00 in0.0 mm 0.00 in0.0 mm
01:20 PM 48.6°F9.2°C 34.9°F1.6°C 59% 2.3 mph SSW3.7 kmh SSW 5.8 mph9.3 kmh 30.34 in1027.4 mb - 0.00 in0.0 mm 0.00 in0.0 mm
01:30 PM 49.4°F9.7°C 36.1°F2.3°C 60% 3.5 mph S5.6 kmh S 4.6 mph7.4 kmh 30.32 in1026.8 mb - 0.00 in0.0 mm 0.00 in0.0 mm
01:40 PM 49.9°F9.9°C 37.0°F2.8°C 61% 5.8 mph SE9.3 kmh SE 10.4 mph16.7 kmh 30.32 in1026.8 mb - 0.00 in0.0 mm 0.00 in0.0 mm
01:50 PM 50.1°F10.1°C 36.8°F2.7°C 60% 6.9 mph SSW11.1 kmh SSW 10.4 mph16.7 kmh 30.31 in1026.4 mb - 0.00 in0.0 mm 0.00 in0.0 mm
02:00 PM 50.9°F10.5°C 37.1°F2.8°C 59% 5.8 mph S9.3 kmh S 9.2 mph14.8 kmh 30.30 in1026.1 mb - 0.00 in0.0 mm 0.00 in0.0 mm
02:10 PM 51.5°F10.8°C 38.5°F3.6°C 61% 5.8 mph SSE9.3 kmh SSE 8.1 mph13.0 kmh 30.29 in1025.7 mb - 0.00 in0.0 mm 0.00 in0.0 mm
02:20 PM 51.8°F11.0°C 36.6°F2.6°C 56% 6.9 mph SW11.1 kmh SW 10.4 mph16.7 kmh 30.28 in1025.4 mb - 0.00 in0.0 mm 0.00 in0.0 mm
02:30 PM 51.4°F10.8°C 37.2°F2.9°C 58% 5.8 mph SE9.3 kmh SE 11.5 mph18.5 kmh 30.28 in1025.4 mb - 0.00 in0.0 mm 0.00 in0.0 mm
02:40 PM 51.7°F10.9°C 37.4°F3.0°C 58% 3.5 mph S5.6 kmh S 6.9 mph11.1 kmh 30.27 in1025.1 mb - 0.00 in0.0 mm 0.00 in0.0 mm
02:50 PM 51.7°F10.9°C 37.4°F3.0°C 58% 4.6 mph SSE7.4 kmh SSE 6.9 mph11.1 kmh 30.27 in1025.1 mb - 0.00 in0.0 mm 0.00 in0.0 mm
03:00 PM 53.1°F11.7°C 37.8°F3.2°C 56% 8.1 mph SSW13.0 kmh SSW 12.7 mph20.4 kmh 30.26 in1024.7 mb - 0.00 in0.0 mm 0.00 in0.0 mm
03:10 PM 52.6°F11.4°C 37.8°F3.2°C 57% 5.8 mph SSW9.3 kmh SSW 8.1 mph13.0 kmh 30.25 in1024.4 mb - 0.00 in0.0 mm 0.00 in0.0 mm
03:20 PM 52.8°F11.6°C 38.0°F3.3°C 57% 5.8 mph SE9.3 kmh SE 5.8 mph9.3 kmh 30.25 in1024.4 mb - 0.00 in0.0 mm 0.00 in0.0 mm
03:30 PM 53.1°F11.7°C 37.8°F3.2°C 56% 6.9 mph SSE11.1 kmh SSE 8.1 mph13.0 kmh 30.25 in1024.4 mb - 0.00 in0.0 mm 0.00 in0.0 mm
03:40 PM 53.2°F11.8°C 36.5°F2.5°C 53% 5.8 mph S9.3 kmh S 11.5 mph18.5 kmh 30.24 in1024.0 mb - 0.00 in0.0 mm 0.00 in0.0 mm
03:50 PM 53.1°F11.7°C 38.3°F3.5°C 57% 6.9 mph SSW11.1 kmh SSW 10.4 mph16.7 kmh 30.24 in1024.0 mb - 0.00 in0.0 mm 0.00 in0.0 mm
04:00 PM 53.5°F11.9°C 37.2°F2.9°C 54% 5.8 mph SSW9.3 kmh SSW 8.1 mph13.0 kmh 30.23 in1023.7 mb - 0.00 in0.0 mm 0.00 in0.0 mm
04:10 PM 54.5°F12.5°C 38.6°F3.7°C 55% 9.2 mph SSE14.8 kmh SSE 19.6 mph31.5 kmh 30.23 in1023.7 mb - 0.00 in0.0 mm 0.00 in0.0 mm
04:20 PM 53.5°F11.9°C 36.8°F2.7°C 53% 9.2 mph S14.8 kmh S 13.8 mph22.2 kmh 30.22 in1023.4 mb - 0.00 in0.0 mm 0.00 in0.0 mm
04:30 PM 53.7°F12.1°C 37.0°F2.8°C 53% 9.2 mph S14.8 kmh S 11.5 mph18.5 kmh 30.21 in1023.0 mb - 0.00 in0.0 mm 0.00 in0.0 mm
04:40 PM 53.6°F12.0°C 37.3°F2.9°C 54% 3.5 mph S5.6 kmh S 6.9 mph11.1 kmh 30.21 in1023.0 mb - 0.00 in0.0 mm 0.00 in0.0 mm
04:50 PM 53.9°F12.2°C 37.1°F2.8°C 53% 6.9 mph S11.1 kmh S 10.4 mph16.7 kmh 30.20 in1022.7 mb - 0.00 in0.0 mm 0.00 in0.0 mm
05:00 PM 53.6°F12.0°C 36.4°F2.4°C 52% 6.9 mph SSE11.1 kmh SSE 13.8 mph22.2 kmh 30.20 in1022.7 mb - 0.00 in0.0 mm 0.00 in0.0 mm
05:10 PM 53.8°F12.1°C 37.5°F3.1°C 54% 6.9 mph SSE11.1 kmh SSE 9.2 mph14.8 kmh 30.20 in1022.7 mb - 0.00 in0.0 mm 0.00 in0.0 mm
05:20 PM 53.8°F12.1°C 37.1°F2.8°C 53% 6.9 mph S11.1 kmh S 11.5 mph18.5 kmh 30.20 in1022.7 mb - 0.00 in0.0 mm 0.00 in0.0 mm
05:30 PM 53.7°F12.1°C 36.9°F2.7°C 53% 6.9 mph SSE11.1 kmh SSE 15.0 mph24.1 kmh 30.18 in1022.0 mb - 0.00 in0.0 mm 0.00 in0.0 mm
05:40 PM 53.3°F11.8°C 35.6°F2.0°C 51% 6.9 mph S11.1 kmh S 11.5 mph18.5 kmh 30.18 in1022.0 mb - 0.00 in0.0 mm 0.00 in0.0 mm
05:50 PM 53.3°F11.8°C 36.6°F2.6°C 53% 11.5 mph S18.5 kmh S 17.3 mph27.8 kmh 30.17 in1021.7 mb - 0.00 in0.0 mm 0.00 in0.0 mm
06:00 PM 53.3°F11.8°C 36.6°F2.6°C 53% 6.9 mph S11.1 kmh S 12.7 mph20.4 kmh 30.17 in1021.7 mb - 0.00 in0.0 mm 0.00 in0.0 mm
06:10 PM 53.0°F11.7°C 37.7°F3.2°C 56% 4.6 mph SSE7.4 kmh SSE 10.4 mph16.7 kmh 30.16 in1021.3 mb - 0.00 in0.0 mm 0.00 in0.0 mm
06:20 PM 52.7°F11.5°C 36.5°F2.5°C 54% 6.9 mph SSE11.1 kmh SSE 8.1 mph13.0 kmh 30.16 in1021.3 mb - 0.00 in0.0 mm 0.00 in0.0 mm
06:30 PM 52.4°F11.3°C 36.7°F2.6°C 55% 3.5 mph S5.6 kmh S 4.6 mph7.4 kmh 30.16 in1021.3 mb - 0.00 in0.0 mm 0.00 in0.0 mm
06:40 PM 52.0°F11.1°C 36.7°F2.6°C 56% 3.5 mph S5.6 kmh S 4.6 mph7.4 kmh 30.15 in1021.0 mb - 0.00 in0.0 mm 0.00 in0.0 mm
06:50 PM 51.4°F10.8°C 36.2°F2.3°C 56% 4.6 mph S7.4 kmh S 8.1 mph13.0 kmh 30.14 in1020.7 mb - 0.00 in0.0 mm 0.00 in0.0 mm
07:00 PM 51.0°F10.6°C 36.3°F2.4°C 57% 4.6 mph S7.4 kmh S 6.9 mph11.1 kmh 30.14 in1020.7 mb - 0.00 in0.0 mm 0.00 in0.0 mm
07:10 PM 50.6°F10.3°C 35.9°F2.2°C 57% 3.5 mph S5.6 kmh S 10.4 mph16.7 kmh 30.14 in1020.7 mb - 0.00 in0.0 mm 0.00 in0.0 mm
07:20 PM 49.6°F9.8°C 35.9°F2.2°C 59% Calm Calm 2.3 mph3.7 kmh 30.15 in1021.0 mb - 0.00 in0.0 mm 0.00 in0.0 mm
07:30 PM 48.3°F9.1°C 36.3°F2.4°C 63% 3.5 mph SSE5.6 kmh SSE 4.6 mph7.4 kmh 30.14 in1020.7 mb - 0.00 in0.0 mm 0.00 in0.0 mm
07:40 PM 48.1°F8.9°C 36.5°F2.5°C 64% 3.5 mph SSE5.6 kmh SSE 3.5 mph5.6 kmh 30.14 in1020.7 mb - 0.00 in0.0 mm 0.00 in0.0 mm
07:50 PM 48.1°F8.9°C 36.8°F2.7°C 65% 4.6 mph SSE7.4 kmh SSE 4.6 mph7.4 kmh 30.13 in1020.3 mb - 0.00 in0.0 mm 0.00 in0.0 mm
08:00 PM 47.9°F8.8°C 36.7°F2.6°C 65% 2.3 mph S3.7 kmh S 10.4 mph16.7 kmh 30.13 in1020.3 mb - 0.00 in0.0 mm 0.00 in0.0 mm
08:10 PM 47.9°F8.8°C 36.3°F2.4°C 64% 3.5 mph SSE5.6 kmh SSE 8.1 mph13.0 kmh 30.13 in1020.3 mb - 0.00 in0.0 mm 0.00 in0.0 mm
08:20 PM 48.1°F8.9°C 36.5°F2.5°C 64% 4.6 mph SSE7.4 kmh SSE 8.1 mph13.0 kmh 30.13 in1020.3 mb - 0.00 in0.0 mm 0.00 in0.0 mm
08:30 PM 48.2°F9.0°C 36.2°F2.3°C 63% 3.5 mph S5.6 kmh S 10.4 mph16.7 kmh 30.13 in1020.3 mb - 0.00 in0.0 mm 0.00 in0.0 mm
08:40 PM 48.7°F9.3°C 36.3°F2.4°C 62% 4.6 mph S7.4 kmh S 10.4 mph16.7 kmh 30.14 in1020.7 mb - 0.00 in0.0 mm 0.00 in0.0 mm
08:50 PM 49.2°F9.6°C 37.2°F2.9°C 63% 4.6 mph S7.4 kmh S 6.9 mph11.1 kmh 30.13 in1020.3 mb - 0.00 in0.0 mm 0.00 in0.0 mm
09:00 PM 49.7°F9.8°C 36.8°F2.7°C 61% 6.9 mph S11.1 kmh S 10.4 mph16.7 kmh 30.12 in1020.0 mb - 0.00 in0.0 mm 0.00 in0.0 mm
09:10 PM 49.6°F9.8°C 36.3°F2.4°C 60% 6.9 mph S11.1 kmh S 11.5 mph18.5 kmh 30.12 in1020.0 mb - 0.00 in0.0 mm 0.00 in0.0 mm
09:20 PM 49.6°F9.8°C 35.8°F2.1°C 59% 5.8 mph S9.3 kmh S 8.1 mph13.0 kmh 30.12 in1020.0 mb - 0.00 in0.0 mm 0.00 in0.0 mm
09:30 PM 49.6°F9.8°C 36.3°F2.4°C 60% 3.5 mph S5.6 kmh S 9.2 mph14.8 kmh 30.12 in1020.0 mb - 0.00 in0.0 mm 0.00 in0.0 mm
09:40 PM 49.4°F9.7°C 36.1°F2.3°C 60% 6.9 mph S11.1 kmh S 15.0 mph24.1 kmh 30.12 in1020.0 mb - 0.00 in0.0 mm 0.00 in0.0 mm
09:50 PM 49.5°F9.7°C 36.6°F2.6°C 61% 5.8 mph S9.3 kmh S 9.2 mph14.8 kmh 30.12 in1020.0 mb - 0.00 in0.0 mm 0.00 in0.0 mm
10:00 PM 49.5°F9.7°C 36.2°F2.3°C 60% 6.9 mph S11.1 kmh S 10.4 mph16.7 kmh 30.14 in1020.7 mb - 0.00 in0.0 mm 0.00 in0.0 mm
10:10 PM 49.3°F9.6°C 36.4°F2.4°C 61% 5.8 mph S9.3 kmh S 12.7 mph20.4 kmh 30.14 in1020.7 mb - 0.00 in0.0 mm 0.00 in0.0 mm
10:20 PM 48.8°F9.3°C 36.4°F2.4°C 62% 3.5 mph S5.6 kmh S 5.8 mph9.3 kmh 30.13 in1020.3 mb - 0.00 in0.0 mm 0.00 in0.0 mm
10:30 PM 48.6°F9.2°C 36.2°F2.3°C 62% 3.5 mph S5.6 kmh S 5.8 mph9.3 kmh 30.12 in1020.0 mb - 0.00 in0.0 mm 0.00 in0.0 mm
10:40 PM 48.7°F9.3°C 36.6°F2.6°C 63% 4.6 mph S7.4 kmh S 9.2 mph14.8 kmh 30.13 in1020.3 mb - 0.00 in0.0 mm 0.00 in0.0 mm
10:50 PM 48.8°F9.3°C 36.4°F2.4°C 62% 6.9 mph S11.1 kmh S 10.4 mph16.7 kmh 30.12 in1020.0 mb - 0.00 in0.0 mm 0.00 in0.0 mm
11:00 PM 48.9°F9.4°C 36.4°F2.4°C 62% 9.2 mph S14.8 kmh S 16.1 mph25.9 kmh 30.11 in1019.6 mb - 0.00 in0.0 mm 0.00 in0.0 mm
11:10 PM 48.9°F9.4°C 36.4°F2.4°C 62% 9.2 mph S14.8 kmh S 11.5 mph18.5 kmh 30.10 in1019.3 mb - 0.00 in0.0 mm 0.00 in0.0 mm
11:20 PM 48.8°F9.3°C 36.3°F2.4°C 62% 5.8 mph S9.3 kmh S 16.1 mph25.9 kmh 30.09 in1019.0 mb - 0.00 in0.0 mm 0.00 in0.0 mm
11:30 PM 48.7°F9.3°C 36.7°F2.6°C 63% 5.8 mph S9.3 kmh S 11.5 mph18.5 kmh 30.10 in1019.3 mb - 0.00 in0.0 mm 0.00 in0.0 mm
11:40 PM 48.7°F9.3°C 36.7°F2.6°C 63% 5.8 mph S9.3 kmh S 11.5 mph18.5 kmh 30.09 in1019.0 mb - 0.00 in0.0 mm 0.00 in0.0 mm
11:50 PM 48.5°F9.2°C 36.4°F2.4°C 63% 5.8 mph SSW9.3 kmh SSW 6.9 mph11.1 kmh 30.09 in1019.0 mb - 0.00 in0.0 mm 0.00 in0.0 mm